SWA2768 KLAS-KSFO
Flight info
| Callsign | SWA2768 |
|---|---|
| Flight time | 1h 6m |
| Altitude | 38000 |
| Route | JOHKR5 KENNO RUSME DYAMD5 |
| Aircraft | B738/M-SDE2E3FGHIRWXY/LB1 |
Departure
| Time | 2026-05-04 01:38 |
|---|---|
| Airport | Harry Reid International Airport (KLAS) |
Arrival
| Time | 2026-05-04 02:45 |
|---|---|
| Airport | San Francisco International Airport (KSFO) |
| Time | Latitude | Longitude | Altitude | Speed | Heading |
|---|---|---|---|---|---|
| 2026-05-04 01:08 | 36.08134 | -115.14794 | 2096 ft | 0 kts | 62° |
| 2026-05-04 01:24 | 36.08126 | -115.14812 | 2096 ft | 4 kts | 62° |
| 2026-05-04 01:25 | 36.08114 | -115.14836 | 2096 ft | 4 kts | 36° |
| 2026-05-04 01:25 | 36.08094 | -115.14843 | 2096 ft | 4 kts | 341° |
| 2026-05-04 01:25 | 36.08078 | -115.14835 | 2096 ft | 1 kts | 335° |
| 2026-05-04 01:25 | 36.08075 | -115.14834 | 2096 ft | 0 kts | 335° |
| 2026-05-04 01:27 | 36.08078 | -115.14835 | 2096 ft | 2 kts | 335° |
| 2026-05-04 01:28 | 36.08097 | -115.14839 | 2096 ft | 3 kts | 1° |
| 2026-05-04 01:28 | 36.08106 | -115.14854 | 2096 ft | 2 kts | 243° |
| 2026-05-04 01:28 | 36.08097 | -115.14850 | 2096 ft | 0 kts | 147° |
| 2026-05-04 01:31 | 36.08097 | -115.14849 | 2096 ft | 0 kts | 147° |
| 2026-05-04 01:32 | 36.08084 | -115.14840 | 2096 ft | 5 kts | 148° |
| 2026-05-04 01:32 | 36.08038 | -115.14811 | 2096 ft | 10 kts | 154° |
| 2026-05-04 01:32 | 36.07962 | -115.14767 | 2096 ft | 13 kts | 155° |
| 2026-05-04 01:32 | 36.07875 | -115.14726 | 2096 ft | 13 kts | 172° |
| 2026-05-04 01:33 | 36.07794 | -115.14688 | 2096 ft | 13 kts | 129° |
| 2026-05-04 01:33 | 36.07770 | -115.14580 | 2096 ft | 14 kts | 97° |
| 2026-05-04 01:33 | 36.07758 | -115.14433 | 2096 ft | 20 kts | 96° |
| 2026-05-04 01:33 | 36.07754 | -115.14248 | 2094 ft | 23 kts | 90° |
| 2026-05-04 01:34 | 36.07754 | -115.14048 | 2093 ft | 23 kts | 90° |
| 2026-05-04 01:34 | 36.07755 | -115.13854 | 2092 ft | 22 kts | 90° |
| 2026-05-04 01:34 | 36.07754 | -115.13666 | 2091 ft | 22 kts | 91° |
| 2026-05-04 01:34 | 36.07754 | -115.13483 | 2090 ft | 21 kts | 90° |
| 2026-05-04 01:35 | 36.07754 | -115.13365 | 2088 ft | 21 kts | 89° |
| 2026-05-04 01:35 | 36.07754 | -115.13191 | 2084 ft | 20 kts | 90° |
| 2026-05-04 01:35 | 36.07755 | -115.13014 | 2077 ft | 23 kts | 90° |
| 2026-05-04 01:35 | 36.07755 | -115.12716 | 2065 ft | 29 kts | 90° |
| 2026-05-04 01:36 | 36.07756 | -115.12561 | 2060 ft | 24 kts | 90° |
| 2026-05-04 01:36 | 36.07755 | -115.12363 | 2054 ft | 23 kts | 90° |
| 2026-05-04 01:36 | 36.07755 | -115.12187 | 2049 ft | 14 kts | 95° |
| 2026-05-04 01:36 | 36.07692 | -115.12124 | 2048 ft | 13 kts | 179° |
| 2026-05-04 01:37 | 36.07650 | -115.12129 | 2047 ft | 3 kts | 207° |
| 2026-05-04 01:37 | 36.07644 | -115.12150 | 2047 ft | 3 kts | 264° |
| 2026-05-04 01:37 | 36.07642 | -115.12202 | 2049 ft | 17 kts | 269° |
| 2026-05-04 01:37 | 36.07640 | -115.12631 | 2063 ft | 82 kts | 268° |
| 2026-05-04 01:38 | 36.07640 | -115.13587 | 2091 ft | 139 kts | 270° |
| 2026-05-04 01:38 | 36.07670 | -115.14946 | 2342 ft | 165 kts | 273° |
| 2026-05-04 01:38 | 36.07734 | -115.16275 | 3237 ft | 147 kts | 264° |
| 2026-05-04 01:38 | 36.07749 | -115.17484 | 3914 ft | 136 kts | 262° |
| 2026-05-04 01:39 | 36.07747 | -115.18734 | 4240 ft | 157 kts | 262° |
| 2026-05-04 01:39 | 36.07722 | -115.20188 | 4508 ft | 181 kts | 257° |
| 2026-05-04 01:39 | 36.07509 | -115.21831 | 4756 ft | 206 kts | 255° |
| 2026-05-04 01:39 | 36.07249 | -115.23548 | 4958 ft | 226 kts | 254° |
| 2026-05-04 01:40 | 36.06708 | -115.25411 | 5314 ft | 233 kts | 231° |
| 2026-05-04 01:40 | 36.05403 | -115.26654 | 5750 ft | 247 kts | 201° |
| 2026-05-04 01:40 | 36.03761 | -115.27375 | 6468 ft | 254 kts | 200° |
| 2026-05-04 01:40 | 36.02090 | -115.28116 | 7234 ft | 256 kts | 200° |
| 2026-05-04 01:41 | 36.00415 | -115.28868 | 7773 ft | 258 kts | 200° |
| 2026-05-04 01:41 | 35.98728 | -115.29665 | 8052 ft | 262 kts | 204° |
| 2026-05-04 01:41 | 35.97084 | -115.30718 | 8665 ft | 270 kts | 208° |
| 2026-05-04 01:41 | 35.95449 | -115.31828 | 9583 ft | 269 kts | 208° |
| 2026-05-04 01:42 | 35.93787 | -115.32941 | 10330 ft | 273 kts | 208° |
| 2026-05-04 01:42 | 35.92132 | -115.34034 | 11144 ft | 274 kts | 207° |
| 2026-05-04 01:42 | 35.90488 | -115.35175 | 12070 ft | 270 kts | 216° |
| 2026-05-04 01:42 | 35.89232 | -115.36941 | 12758 ft | 281 kts | 239° |
| 2026-05-04 01:43 | 35.88562 | -115.39243 | 13470 ft | 292 kts | 256° |
| 2026-05-04 01:43 | 35.88500 | -115.41766 | 14200 ft | 297 kts | 268° |
| 2026-05-04 01:43 | 35.88575 | -115.44331 | 14840 ft | 303 kts | 268° |
| 2026-05-04 01:43 | 35.88660 | -115.46945 | 15511 ft | 306 kts | 267° |
| 2026-05-04 01:44 | 35.88731 | -115.49570 | 16230 ft | 308 kts | 268° |
| 2026-05-04 01:44 | 35.88790 | -115.52244 | 16828 ft | 314 kts | 268° |
| 2026-05-04 01:44 | 35.88843 | -115.54931 | 17580 ft | 315 kts | 268° |
| 2026-05-04 01:44 | 35.88897 | -115.57674 | 18009 ft | 328 kts | 268° |
| 2026-05-04 01:45 | 35.88949 | -115.60571 | 18154 ft | 347 kts | 267° |
| 2026-05-04 01:45 | 35.89004 | -115.63625 | 18286 ft | 365 kts | 268° |
| 2026-05-04 01:45 | 35.89126 | -115.70047 | 19009 ft | 383 kts | 268° |
| 2026-05-04 01:46 | 35.89187 | -115.73306 | 19813 ft | 377 kts | 268° |
| 2026-05-04 01:46 | 35.89247 | -115.76514 | 20667 ft | 371 kts | 268° |
| 2026-05-04 01:46 | 35.89304 | -115.79688 | 21393 ft | 369 kts | 268° |
| 2026-05-04 01:46 | 35.89359 | -115.82852 | 22049 ft | 367 kts | 267° |
| 2026-05-04 01:47 | 35.89412 | -115.85993 | 22700 ft | 366 kts | 267° |
| 2026-05-04 01:47 | 35.89467 | -115.89127 | 23322 ft | 365 kts | 268° |
| 2026-05-04 01:47 | 35.89898 | -115.92237 | 23767 ft | 376 kts | 282° |
| 2026-05-04 01:47 | 35.90983 | -115.95220 | 24168 ft | 388 kts | 293° |
| 2026-05-04 01:48 | 35.92619 | -115.97862 | 24596 ft | 400 kts | 304° |
| 2026-05-04 01:48 | 35.94565 | -116.00335 | 25138 ft | 403 kts | 307° |
| 2026-05-04 01:48 | 35.96583 | -116.02769 | 25385 ft | 409 kts | 307° |
| 2026-05-04 01:48 | 35.98608 | -116.05178 | 25696 ft | 416 kts | 306° |
| 2026-05-04 01:49 | 36.00616 | -116.07730 | 26338 ft | 412 kts | 306° |
| 2026-05-04 01:49 | 36.02648 | -116.10197 | 27015 ft | 408 kts | 307° |
| 2026-05-04 01:49 | 36.04695 | -116.12659 | 27335 ft | 412 kts | 307° |
| 2026-05-04 01:49 | 36.06746 | -116.15144 | 27595 ft | 415 kts | 307° |
| 2026-05-04 01:50 | 36.08809 | -116.17664 | 27942 ft | 416 kts | 306° |
| 2026-05-04 01:50 | 36.10858 | -116.20187 | 28333 ft | 416 kts | 306° |
| 2026-05-04 01:50 | 36.12907 | -116.22724 | 28709 ft | 417 kts | 306° |
| 2026-05-04 01:50 | 36.14935 | -116.25243 | 29058 ft | 418 kts | 306° |
| 2026-05-04 01:51 | 36.16994 | -116.27802 | 29411 ft | 419 kts | 305° |
| 2026-05-04 01:51 | 36.19051 | -116.30360 | 29833 ft | 418 kts | 305° |
| 2026-05-04 01:51 | 36.21093 | -116.32899 | 30267 ft | 415 kts | 305° |
| 2026-05-04 01:51 | 36.23124 | -116.35430 | 30604 ft | 415 kts | 305° |
| 2026-05-04 01:52 | 36.25150 | -116.37957 | 30861 ft | 416 kts | 305° |
| 2026-05-04 01:52 | 36.27187 | -116.40501 | 31142 ft | 416 kts | 305° |
| 2026-05-04 01:52 | 36.29235 | -116.43035 | 31505 ft | 416 kts | 305° |
| 2026-05-04 01:52 | 36.31310 | -116.45516 | 31907 ft | 414 kts | 306° |
| 2026-05-04 01:53 | 36.33396 | -116.47976 | 32216 ft | 414 kts | 306° |
| 2026-05-04 01:53 | 36.35475 | -116.50441 | 32466 ft | 412 kts | 304° |
| 2026-05-04 01:53 | 36.37494 | -116.52957 | 32745 ft | 413 kts | 306° |
| 2026-05-04 01:53 | 36.39597 | -116.55400 | 32972 ft | 412 kts | 306° |
| 2026-05-04 01:54 | 36.41647 | -116.57864 | 33251 ft | 412 kts | 306° |
| 2026-05-04 01:54 | 36.43738 | -116.60319 | 33354 ft | 416 kts | 305° |
| 2026-05-04 01:54 | 36.45825 | -116.62770 | 33685 ft | 420 kts | 308° |
| 2026-05-04 01:54 | 36.48022 | -116.65149 | 34056 ft | 417 kts | 308° |
| 2026-05-04 01:55 | 36.50184 | -116.67512 | 34511 ft | 411 kts | 307° |
| 2026-05-04 01:55 | 36.52275 | -116.69933 | 34709 ft | 410 kts | 306° |
| 2026-05-04 01:55 | 36.54366 | -116.72359 | 34911 ft | 413 kts | 307° |
| 2026-05-04 01:55 | 36.56484 | -116.74787 | 35059 ft | 415 kts | 307° |
| 2026-05-04 01:56 | 36.58608 | -116.77221 | 35252 ft | 416 kts | 307° |
| 2026-05-04 01:56 | 36.60741 | -116.79653 | 35486 ft | 415 kts | 307° |
| 2026-05-04 01:56 | 36.62871 | -116.82079 | 35666 ft | 416 kts | 307° |
| 2026-05-04 01:56 | 36.65007 | -116.84528 | 35674 ft | 416 kts | 305° |
| 2026-05-04 01:57 | 36.69295 | -116.89369 | 35667 ft | 412 kts | 306° |
| 2026-05-04 01:57 | 36.73505 | -116.94182 | 35671 ft | 414 kts | 310° |
| 2026-05-04 01:58 | 36.76002 | -116.96117 | 35664 ft | 429 kts | 320° |
| 2026-05-04 01:58 | 36.78663 | -116.97811 | 35695 ft | 431 kts | 321° |
| 2026-05-04 01:58 | 36.81351 | -116.99508 | 35588 ft | 432 kts | 319° |
| 2026-05-04 01:58 | 36.84017 | -117.01227 | 35757 ft | 434 kts | 322° |
| 2026-05-04 01:59 | 36.89382 | -117.04711 | 35704 ft | 439 kts | 322° |
| 2026-05-04 01:59 | 36.94869 | -117.08138 | 35703 ft | 442 kts | 320° |
| 2026-05-04 02:00 | 37.00287 | -117.11683 | 35720 ft | 440 kts | 320° |
| 2026-05-04 02:00 | 37.05717 | -117.15164 | 35722 ft | 436 kts | 320° |
| 2026-05-04 02:01 | 37.11058 | -117.18699 | 35703 ft | 432 kts | 320° |
| 2026-05-04 02:01 | 37.16342 | -117.22170 | 35708 ft | 428 kts | 320° |
| 2026-05-04 02:02 | 37.21643 | -117.25650 | 35733 ft | 434 kts | 321° |
| 2026-05-04 02:02 | 37.27057 | -117.29205 | 35736 ft | 443 kts | 322° |
| 2026-05-04 02:03 | 37.32223 | -117.33259 | 35748 ft | 428 kts | 309° |
| 2026-05-04 02:03 | 37.36650 | -117.38194 | 35740 ft | 428 kts | 308° |
| 2026-05-04 02:04 | 37.41145 | -117.43141 | 35737 ft | 430 kts | 309° |
| 2026-05-04 02:04 | 37.45707 | -117.48033 | 35738 ft | 430 kts | 309° |
| 2026-05-04 02:05 | 37.47747 | -117.50657 | 35707 ft | 411 kts | 294° |
| 2026-05-04 02:05 | 37.48986 | -117.53766 | 35806 ft | 394 kts | 285° |
| 2026-05-04 02:05 | 37.49900 | -117.57009 | 35722 ft | 387 kts | 274° |
| 2026-05-04 02:05 | 37.50248 | -117.60344 | 35751 ft | 386 kts | 271° |
| 2026-05-04 02:06 | 37.50750 | -117.67135 | 35759 ft | 392 kts | 270° |
| 2026-05-04 02:06 | 37.51247 | -117.74024 | 35739 ft | 397 kts | 270° |
| 2026-05-04 02:07 | 37.51783 | -117.80948 | 35733 ft | 398 kts | 271° |
| 2026-05-04 02:07 | 37.52330 | -117.87770 | 35728 ft | 390 kts | 271° |
| 2026-05-04 02:08 | 37.52874 | -117.94555 | 35746 ft | 388 kts | 270° |
| 2026-05-04 02:08 | 37.53412 | -118.01316 | 35742 ft | 387 kts | 270° |
| 2026-05-04 02:09 | 37.53945 | -118.08042 | 35758 ft | 386 kts | 270° |
| 2026-05-04 02:09 | 37.54473 | -118.14824 | 35815 ft | 394 kts | 271° |
| 2026-05-04 02:10 | 37.55008 | -118.21716 | 35809 ft | 396 kts | 271° |
| 2026-05-04 02:10 | 37.55542 | -118.28631 | 35834 ft | 397 kts | 271° |
| 2026-05-04 02:11 | 37.56071 | -118.35529 | 35833 ft | 399 kts | 271° |
| 2026-05-04 02:11 | 37.56602 | -118.42521 | 35814 ft | 401 kts | 271° |
| 2026-05-04 02:12 | 37.57132 | -118.49532 | 35822 ft | 402 kts | 271° |
| 2026-05-04 02:12 | 37.57659 | -118.56550 | 35927 ft | 402 kts | 270° |
| 2026-05-04 02:13 | 37.58180 | -118.63576 | 35971 ft | 403 kts | 270° |
| 2026-05-04 02:13 | 37.58698 | -118.70628 | 36006 ft | 404 kts | 270° |
| 2026-05-04 02:14 | 37.59212 | -118.77660 | 36018 ft | 404 kts | 270° |
| 2026-05-04 02:14 | 37.59723 | -118.84714 | 36018 ft | 405 kts | 270° |
| 2026-05-04 02:15 | 37.60230 | -118.91761 | 36024 ft | 403 kts | 270° |
| 2026-05-04 02:15 | 37.60732 | -118.98816 | 36017 ft | 404 kts | 271° |
| 2026-05-04 02:16 | 37.61231 | -119.05901 | 36005 ft | 407 kts | 270° |
| 2026-05-04 02:16 | 37.61727 | -119.12996 | 35933 ft | 410 kts | 270° |
| 2026-05-04 02:17 | 37.62225 | -119.20166 | 35940 ft | 411 kts | 270° |
| 2026-05-04 02:17 | 37.62721 | -119.27388 | 35954 ft | 413 kts | 270° |
| 2026-05-04 02:18 | 37.63216 | -119.34639 | 35962 ft | 414 kts | 271° |
| 2026-05-04 02:18 | 37.63710 | -119.41876 | 35945 ft | 414 kts | 270° |
| 2026-05-04 02:19 | 37.64134 | -119.48231 | 35951 ft | 415 kts | 270° |
| 2026-05-04 02:19 | 37.64613 | -119.55487 | 35977 ft | 415 kts | 271° |
| 2026-05-04 02:20 | 37.65010 | -119.61537 | 35959 ft | 417 kts | 271° |
| 2026-05-04 02:20 | 37.65486 | -119.68831 | 35977 ft | 417 kts | 271° |
| 2026-05-04 02:21 | 37.65958 | -119.76164 | 35517 ft | 426 kts | 271° |
| 2026-05-04 02:21 | 37.66196 | -119.79898 | 34971 ft | 426 kts | 271° |
| 2026-05-04 02:21 | 37.66511 | -119.84827 | 34164 ft | 428 kts | 271° |
| 2026-05-04 02:22 | 37.66673 | -119.87357 | 33781 ft | 427 kts | 271° |
| 2026-05-04 02:22 | 37.66909 | -119.91078 | 33252 ft | 423 kts | 271° |
| 2026-05-04 02:22 | 37.67142 | -119.94775 | 32762 ft | 421 kts | 271° |
| 2026-05-04 02:22 | 37.67372 | -119.98444 | 32284 ft | 418 kts | 271° |
| 2026-05-04 02:23 | 37.67599 | -120.02086 | 31821 ft | 415 kts | 272° |
| 2026-05-04 02:23 | 37.67824 | -120.05715 | 31356 ft | 414 kts | 272° |
| 2026-05-04 02:23 | 37.68046 | -120.09332 | 30882 ft | 413 kts | 272° |
| 2026-05-04 02:23 | 37.68265 | -120.12907 | 30438 ft | 412 kts | 272° |
| 2026-05-04 02:24 | 37.68485 | -120.16518 | 29952 ft | 413 kts | 273° |
| 2026-05-04 02:24 | 37.68705 | -120.20147 | 29365 ft | 415 kts | 273° |
| 2026-05-04 02:24 | 37.68924 | -120.23779 | 28893 ft | 415 kts | 273° |
| 2026-05-04 02:24 | 37.69143 | -120.27432 | 28439 ft | 422 kts | 273° |
| 2026-05-04 02:25 | 37.69368 | -120.31200 | 27984 ft | 436 kts | 273° |
| 2026-05-04 02:25 | 37.69596 | -120.35028 | 27508 ft | 436 kts | 273° |
| 2026-05-04 02:25 | 37.69821 | -120.38828 | 27056 ft | 433 kts | 273° |
| 2026-05-04 02:25 | 37.69845 | -120.42610 | 26558 ft | 429 kts | 263° |
| 2026-05-04 02:26 | 37.69446 | -120.46328 | 26085 ft | 425 kts | 259° |
| 2026-05-04 02:26 | 37.68952 | -120.49971 | 25877 ft | 416 kts | 258° |
| 2026-05-04 02:26 | 37.68461 | -120.53549 | 25400 ft | 414 kts | 258° |
| 2026-05-04 02:26 | 37.67994 | -120.57136 | 24916 ft | 413 kts | 259° |
| 2026-05-04 02:27 | 37.67555 | -120.60701 | 24553 ft | 409 kts | 259° |
| 2026-05-04 02:27 | 37.67136 | -120.64228 | 24182 ft | 405 kts | 259° |
| 2026-05-04 02:27 | 37.66725 | -120.67732 | 23879 ft | 400 kts | 259° |
| 2026-05-04 02:27 | 37.66328 | -120.71116 | 23800 ft | 388 kts | 259° |
| 2026-05-04 02:28 | 37.65937 | -120.74430 | 23723 ft | 377 kts | 259° |
| 2026-05-04 02:28 | 37.65550 | -120.77672 | 23565 ft | 370 kts | 259° |
| 2026-05-04 02:28 | 37.65166 | -120.80867 | 23211 ft | 367 kts | 259° |
| 2026-05-04 02:28 | 37.64782 | -120.84045 | 22802 ft | 366 kts | 259° |
| 2026-05-04 02:29 | 37.64400 | -120.87206 | 22433 ft | 364 kts | 259° |
| 2026-05-04 02:29 | 37.64020 | -120.90352 | 22091 ft | 361 kts | 259° |
| 2026-05-04 02:29 | 37.63642 | -120.93469 | 21751 ft | 358 kts | 259° |
| 2026-05-04 02:29 | 37.63265 | -120.96561 | 21425 ft | 356 kts | 259° |
| 2026-05-04 02:30 | 37.62868 | -120.99630 | 21103 ft | 353 kts | 258° |
| 2026-05-04 02:30 | 37.62460 | -121.02671 | 20770 ft | 350 kts | 258° |
| 2026-05-04 02:30 | 37.62051 | -121.05694 | 20455 ft | 348 kts | 258° |
| 2026-05-04 02:30 | 37.61646 | -121.08694 | 20102 ft | 346 kts | 258° |
| 2026-05-04 02:31 | 37.61244 | -121.11683 | 19763 ft | 345 kts | 258° |
| 2026-05-04 02:31 | 37.60844 | -121.14659 | 19421 ft | 343 kts | 258° |
| 2026-05-04 02:31 | 37.60444 | -121.17631 | 19038 ft | 344 kts | 258° |
| 2026-05-04 02:31 | 37.60045 | -121.20598 | 18750 ft | 341 kts | 258° |
| 2026-05-04 02:32 | 37.59649 | -121.23536 | 18478 ft | 339 kts | 258° |
| 2026-05-04 02:32 | 37.59256 | -121.26446 | 18267 ft | 334 kts | 258° |
| 2026-05-04 02:32 | 37.58904 | -121.29313 | 18148 ft | 325 kts | 260° |
| 2026-05-04 02:32 | 37.58587 | -121.32103 | 17852 ft | 322 kts | 259° |
| 2026-05-04 02:33 | 37.58268 | -121.34920 | 16938 ft | 336 kts | 259° |
| 2026-05-04 02:33 | 37.57932 | -121.37879 | 16061 ft | 345 kts | 260° |
| 2026-05-04 02:33 | 37.57587 | -121.40897 | 15192 ft | 350 kts | 260° |
| 2026-05-04 02:33 | 37.57236 | -121.43951 | 14346 ft | 354 kts | 260° |
| 2026-05-04 02:34 | 37.56882 | -121.47031 | 13496 ft | 356 kts | 259° |
| 2026-05-04 02:34 | 37.56527 | -121.50089 | 12593 ft | 357 kts | 261° |
| 2026-05-04 02:34 | 37.56166 | -121.53183 | 11716 ft | 357 kts | 261° |
| 2026-05-04 02:34 | 37.55805 | -121.56284 | 10856 ft | 357 kts | 259° |
| 2026-05-04 02:35 | 37.55444 | -121.59376 | 10036 ft | 356 kts | 259° |
| 2026-05-04 02:35 | 37.55092 | -121.62364 | 9987 ft | 331 kts | 258° |
| 2026-05-04 02:35 | 37.54581 | -121.65097 | 9990 ft | 312 kts | 251° |
| 2026-05-04 02:35 | 37.53939 | -121.67651 | 9973 ft | 299 kts | 248° |
| 2026-05-04 02:36 | 37.53311 | -121.70084 | 9965 ft | 286 kts | 248° |
| 2026-05-04 02:36 | 37.52723 | -121.72431 | 9842 ft | 277 kts | 250° |
| 2026-05-04 02:36 | 37.52158 | -121.74745 | 9487 ft | 277 kts | 250° |
| 2026-05-04 02:36 | 37.51588 | -121.77099 | 8816 ft | 283 kts | 249° |
| 2026-05-04 02:37 | 37.51020 | -121.79467 | 8339 ft | 283 kts | 249° |
| 2026-05-04 02:37 | 37.50449 | -121.81842 | 7804 ft | 287 kts | 249° |
| 2026-05-04 02:37 | 37.49857 | -121.84252 | 7443 ft | 289 kts | 250° |
| 2026-05-04 02:37 | 37.49286 | -121.86658 | 7103 ft | 291 kts | 251° |
| 2026-05-04 02:38 | 37.49066 | -121.89228 | 6774 ft | 295 kts | 268° |
| 2026-05-04 02:38 | 37.49204 | -121.91760 | 6458 ft | 296 kts | 271° |
| 2026-05-04 02:38 | 37.49401 | -121.94333 | 6100 ft | 294 kts | 272° |
| 2026-05-04 02:38 | 37.49588 | -121.96863 | 5745 ft | 286 kts | 272° |
| 2026-05-04 02:39 | 37.49752 | -121.99325 | 5450 ft | 278 kts | 272° |
| 2026-05-04 02:39 | 37.49900 | -122.01730 | 5134 ft | 274 kts | 271° |
| 2026-05-04 02:39 | 37.50040 | -122.04130 | 4760 ft | 277 kts | 271° |
| 2026-05-04 02:39 | 37.50179 | -122.06581 | 4306 ft | 275 kts | 272° |
| 2026-05-04 02:40 | 37.50315 | -122.08903 | 4122 ft | 260 kts | 274° |
| 2026-05-04 02:40 | 37.50791 | -122.10983 | 4045 ft | 246 kts | 297° |
| 2026-05-04 02:40 | 37.51633 | -122.12810 | 3735 ft | 240 kts | 296° |
| 2026-05-04 02:40 | 37.52433 | -122.14623 | 3434 ft | 234 kts | 296° |
| 2026-05-04 02:41 | 37.53210 | -122.16420 | 3112 ft | 233 kts | 296° |
| 2026-05-04 02:41 | 37.53979 | -122.18210 | 3038 ft | 227 kts | 295° |
| 2026-05-04 02:41 | 37.54697 | -122.19895 | 2995 ft | 210 kts | 295° |
| 2026-05-04 02:41 | 37.55358 | -122.21454 | 2985 ft | 194 kts | 294° |
| 2026-05-04 02:42 | 37.55983 | -122.22917 | 2987 ft | 190 kts | 295° |
| 2026-05-04 02:42 | 37.56621 | -122.24376 | 3001 ft | 188 kts | 296° |
| 2026-05-04 02:42 | 37.57232 | -122.25820 | 2812 ft | 189 kts | 293° |
| 2026-05-04 02:42 | 37.57883 | -122.27332 | 2094 ft | 207 kts | 296° |
| 2026-05-04 02:43 | 37.58540 | -122.28961 | 1489 ft | 208 kts | 292° |
| 2026-05-04 02:43 | 37.59108 | -122.30604 | 1019 ft | 202 kts | 293° |
| 2026-05-04 02:43 | 37.59807 | -122.32064 | 741 ft | 190 kts | 300° |
| 2026-05-04 02:43 | 37.60467 | -122.33445 | 475 ft | 172 kts | 292° |
| 2026-05-04 02:44 | 37.60995 | -122.34811 | 253 ft | 172 kts | 290° |
| 2026-05-04 02:44 | 37.61534 | -122.36140 | 45 ft | 167 kts | 294° |
| 2026-05-04 02:44 | 37.62058 | -122.37358 | 26 ft | 145 kts | 291° |
| 2026-05-04 02:44 | 37.62438 | -122.38307 | 22 ft | 90 kts | 298° |
| 2026-05-04 02:45 | 37.62641 | -122.38792 | 21 ft | 47 kts | 298° |
| 2026-05-04 02:45 | 37.62722 | -122.38990 | 21 ft | 13 kts | 281° |
| 2026-05-04 02:45 | 37.62673 | -122.39071 | 21 ft | 13 kts | 206° |
| 2026-05-04 02:45 | 37.62594 | -122.39121 | 22 ft | 12 kts | 207° |
| 2026-05-04 02:46 | 37.62519 | -122.39172 | 21 ft | 13 kts | 209° |
| 2026-05-04 02:46 | 37.62439 | -122.39149 | 22 ft | 13 kts | 126° |
| 2026-05-04 02:46 | 37.62395 | -122.39052 | 21 ft | 13 kts | 117° |
| 2026-05-04 02:46 | 37.62355 | -122.38955 | 21 ft | 12 kts | 118° |
| 2026-05-04 02:47 | 37.62312 | -122.38856 | 23 ft | 15 kts | 118° |
| 2026-05-04 02:47 | 37.62258 | -122.38726 | 21 ft | 17 kts | 117° |
| 2026-05-04 02:47 | 37.62204 | -122.38595 | 22 ft | 17 kts | 117° |
| 2026-05-04 02:47 | 37.62143 | -122.38449 | 21 ft | 21 kts | 117° |
| 2026-05-04 02:48 | 37.62072 | -122.38277 | 21 ft | 22 kts | 118° |
| 2026-05-04 02:48 | 37.62001 | -122.38109 | 21 ft | 21 kts | 117° |
| 2026-05-04 02:48 | 37.61932 | -122.37995 | 23 ft | 16 kts | 165° |
| 2026-05-04 02:48 | 37.61830 | -122.37977 | 23 ft | 14 kts | 154° |
| 2026-05-04 02:49 | 37.61738 | -122.37944 | 21 ft | 14 kts | 178° |
| 2026-05-04 02:49 | 37.61649 | -122.37974 | 21 ft | 13 kts | 206° |
| 2026-05-04 02:49 | 37.61579 | -122.38022 | 21 ft | 7 kts | 218° |
| 2026-05-04 02:49 | 37.61576 | -122.38077 | 21 ft | 7 kts | 296° |
| 2026-05-04 02:50 | 37.61586 | -122.38103 | 23 ft | 1 kts | 296° |
| 2026-05-04 02:50 | 37.61590 | -122.38113 | 22 ft | 1 kts | 296° |
| 2026-05-04 02:50 | 37.61595 | -122.38121 | 21 ft | 1 kts | 314° |
| 2026-05-04 02:50 | 37.61602 | -122.38125 | 21 ft | 1 kts | 338° |
| 2026-05-04 02:51 | 37.61615 | -122.38127 | 21 ft | 3 kts | 355° |
| 2026-05-04 02:51 | 37.61636 | -122.38127 | 22 ft | 3 kts | 359° |
| 2026-05-04 02:51 | 37.61649 | -122.38127 | 22 ft | 0 kts | 0° |
| 2026-05-04 02:51 | 37.61650 | -122.38127 | 22 ft | 0 kts | 0° |
| 2026-05-04 02:52 | 37.61655 | -122.38127 | 21 ft | 0 kts | 0° |
| 2026-05-04 02:52 | 37.61658 | -122.38127 | 21 ft | 0 kts | 0° |